createdAt,value
2022-08-09T00:02:28.509Z,101213.80
2022-08-09T00:07:30.781Z,101210.53
2022-08-09T00:12:46.402Z,101218.09
2022-08-09T00:18:05.489Z,101218.26
2022-08-09T00:23:56.961Z,101218.33
2022-08-09T00:28:34.981Z,101215.17
2022-08-09T00:33:50.313Z,101212.02
2022-08-09T00:38:52.971Z,101216.34
2022-08-09T00:44:16.131Z,101216.25
2022-08-09T00:49:15.212Z,101212.16
2022-08-09T00:54:18.854Z,101217.65
2022-08-09T00:59:41.184Z,101221.55
2022-08-09T01:04:48.174Z,101219.67
2022-08-09T01:10:04.369Z,101227.49
2022-08-09T01:15:17.072Z,101227.96
2022-08-09T01:20:41.934Z,101228.22
2022-08-09T01:26:20.783Z,101226.27
2022-08-09T01:32:28.124Z,101227.91
2022-08-09T01:36:48.793Z,101226.30
2022-08-09T01:41:55.521Z,101228.39
2022-08-09T01:47:05.146Z,101234.57
2022-08-09T01:52:11.622Z,101235.27
2022-08-09T01:57:20.389Z,101234.81
2022-08-09T02:02:30.794Z,101236.57
2022-08-09T02:08:35.796Z,101235.18
2022-08-09T02:13:03.298Z,101236.23
2022-08-09T02:18:10.514Z,101235.33
2022-08-09T02:23:24.558Z,101234.49
2022-08-09T02:28:39.821Z,101236.14
2022-08-09T02:34:07.076Z,101242.10
2022-08-09T02:39:14.397Z,101243.98
2022-08-09T02:44:29.307Z,101243.14
2022-08-09T02:49:41.071Z,101242.31
2022-08-09T02:54:54.704Z,101239.52
2022-08-09T03:00:20.855Z,101248.75
2022-08-09T03:05:22.169Z,101250.55
2022-08-09T03:10:25.328Z,101251.85
2022-08-09T03:15:40.635Z,101257.19
2022-08-09T03:20:51.486Z,101253.08
2022-08-09T03:25:58.134Z,101258.37
2022-08-09T03:31:04.485Z,101258.80
2022-08-09T03:36:16.363Z,101261.89
2022-08-09T03:41:18.692Z,101260.17
2022-08-09T03:46:29.256Z,101262.87
2022-08-09T03:51:55.696Z,101262.09
2022-08-09T03:56:57.789Z,101262.73
2022-08-09T04:02:00.361Z,101262.25
2022-08-09T04:07:02.739Z,101263.78
2022-08-09T04:12:12.031Z,101274.79
2022-08-09T04:17:13.387Z,101276.09
2022-08-09T04:22:14.914Z,101275.96
2022-08-09T04:27:22.036Z,101274.13
2022-08-09T04:32:33.620Z,101275.66
2022-08-09T04:37:44.281Z,101278.67
2022-08-09T04:42:48.471Z,101281.48
2022-08-09T04:48:01.204Z,101285.45
2022-08-09T04:53:06.903Z,101294.02
2022-08-09T04:58:14.472Z,101292.48
2022-08-09T05:03:40.035Z,101298.09
2022-08-09T05:08:36.846Z,101298.64
2022-08-09T05:13:39.941Z,101300.23
2022-08-09T05:18:55.425Z,101302.38
2022-08-09T05:24:02.385Z,101305.17
2022-08-09T05:29:05.350Z,101308.97
2022-08-09T05:34:06.656Z,101310.59
2022-08-09T05:39:21.691Z,101312.07
2022-08-09T05:44:32.696Z,101311.92
2022-08-09T05:50:30.447Z,101308.42
2022-08-09T05:54:56.711Z,101313.45
2022-08-09T06:00:08.148Z,101311.29
2022-08-09T06:05:10.623Z,101316.29
2022-08-09T06:10:15.895Z,101325.96
2022-08-09T06:15:19.261Z,101330.20
2022-08-09T06:20:21.018Z,101340.51
2022-08-09T06:25:22.300Z,101341.95
2022-08-09T06:30:23.619Z,101337.19
2022-08-09T06:35:55.834Z,101334.55
2022-08-09T06:40:46.146Z,101337.80
2022-08-09T06:46:07.908Z,101342.61
2022-08-09T06:51:10.297Z,101353.60
2022-08-09T06:56:11.705Z,101354.87
2022-08-09T07:01:14.376Z,101355.17
2022-08-09T07:06:15.653Z,101357.02
2022-08-09T07:11:17.673Z,101358.61
2022-08-09T07:16:41.196Z,101360.75
2022-08-09T07:21:55.296Z,101366.95
2022-08-09T07:26:58.683Z,101366.52
2022-08-09T07:32:02.832Z,101371.02
2022-08-09T07:37:04.579Z,101378.27
2022-08-09T07:42:06.271Z,101384.50
2022-08-09T07:47:07.801Z,101388.98
2022-08-09T07:52:17.109Z,101391.92
2022-08-09T07:57:20.232Z,101388.20
2022-08-09T08:02:23.685Z,101386.88
2022-08-09T08:08:44.262Z,101386.22
2022-08-09T08:12:47.262Z,101387.31
2022-08-09T08:17:58.286Z,101382.84
2022-08-09T08:23:16.360Z,101384.92
2022-08-09T08:28:31.942Z,101390.20
2022-08-09T08:33:40.640Z,101387.55
2022-08-09T08:38:54.346Z,101386.77
2022-08-09T08:44:02.093Z,101386.19
2022-08-09T08:49:06.668Z,101390.55
2022-08-09T08:54:10.160Z,101389.48
2022-08-09T08:59:21.306Z,101390.20
2022-08-09T09:04:41.232Z,101391.81
2022-08-09T09:10:02.027Z,101395.84
2022-08-09T09:15:06.823Z,101392.36
2022-08-09T09:20:15.402Z,101395.30
2022-08-09T09:26:03.840Z,101396.17
2022-08-09T09:31:05.307Z,101394.25
2022-08-09T09:36:19.829Z,101395.35
2022-08-09T09:41:32.462Z,101391.23
2022-08-09T09:46:41.864Z,101389.14
2022-08-09T09:51:47.741Z,101384.30
2022-08-09T09:58:03.044Z,101388.73
2022-08-09T10:02:17.877Z,101387.98
2022-08-09T10:07:27.138Z,101385.52
2022-08-09T10:12:36.868Z,101377.28
2022-08-09T10:17:55.938Z,101373.98
2022-08-09T10:23:00.790Z,101370.80
2022-08-09T10:28:02.603Z,101377.97
2022-08-09T10:33:04.055Z,101383.48
2022-08-09T10:38:33.731Z,101382.38
2022-08-09T10:43:46.799Z,101379.05
2022-08-09T10:49:05.785Z,101375.17
2022-08-09T10:54:13.299Z,101366.49
2022-08-09T10:59:43.094Z,101361.23
2022-08-09T11:05:25.189Z,101362.24
2022-08-09T11:11:00.784Z,101362.34
2022-08-09T11:16:37.026Z,101358.91
2022-08-09T11:22:10.376Z,101350.71
2022-08-09T11:28:04.461Z,101345.60
2022-08-09T11:33:06.819Z,101339.54
2022-08-09T11:38:16.747Z,101337.44
2022-08-09T11:43:42.133Z,101332.88
2022-08-09T11:48:57.540Z,101329.21
2022-08-09T11:54:27.631Z,101325.99
2022-08-09T11:59:33.675Z,101323.45
2022-08-09T12:04:37.337Z,101310.88
2022-08-09T12:09:39.343Z,101308.10
2022-08-09T12:15:08.225Z,101303.17
2022-08-09T12:20:16.799Z,101302.86
2022-08-09T12:25:36.441Z,101303.55
2022-08-09T12:30:39.652Z,101298.09
2022-08-09T12:35:41.793Z,101295.92
2022-08-09T12:40:46.278Z,101300.11
2022-08-09T12:45:59.376Z,101295.75
2022-08-09T12:51:03.946Z,101295.42
2022-08-09T12:56:43.762Z,101296.78
2022-08-09T13:01:49.914Z,101300.95
2022-08-09T13:06:51.603Z,101299.54
2022-08-09T13:12:02.568Z,101298.84
2022-08-09T13:17:08.631Z,101293.55
2022-08-09T13:22:37.219Z,101293.73
2022-08-09T13:27:40.090Z,101292.08
2022-08-09T13:32:53.009Z,101288.38
2022-08-09T13:37:57.170Z,101291.56
2022-08-09T13:42:58.400Z,101285.18
2022-08-09T13:47:59.647Z,101287.65
2022-08-09T13:53:00.833Z,101282.95
2022-08-09T13:58:02.444Z,101281.23
2022-08-09T14:04:01.552Z,101280.85
2022-08-09T14:08:31.822Z,101284.94
2022-08-09T14:14:23.329Z,101286.59
2022-08-09T14:18:55.484Z,101284.09
2022-08-09T14:24:01.386Z,101280.83
2022-08-09T14:30:18.304Z,101277.20
2022-08-09T14:34:35.472Z,101274.88
2022-08-09T14:39:47.374Z,101273.30
2022-08-09T14:44:59.964Z,101266.85
2022-08-09T14:50:04.441Z,101258.16
2022-08-09T14:55:06.488Z,101259.90
2022-08-09T15:00:10.744Z,101267.25
2022-08-09T15:05:13.160Z,101266.09
2022-08-09T15:10:17.410Z,101268.80
2022-08-09T15:15:19.335Z,101270.70
2022-08-09T15:21:55.663Z,101265.13
2022-08-09T15:25:42.431Z,101261.36
2022-08-09T15:30:59.230Z,101263.00
2022-08-09T15:36:05.833Z,101266.11
2022-08-09T15:41:09.374Z,101268.52
2022-08-09T15:46:33.871Z,101269.91
2022-08-09T15:52:03.737Z,101269.63
2022-08-09T15:56:53.310Z,101260.65
2022-08-09T16:01:54.639Z,101262.52
2022-08-09T16:06:58.289Z,101266.55
2022-08-09T16:12:04.108Z,101268.64
2022-08-09T16:17:05.212Z,101268.47
2022-08-09T16:22:06.975Z,101270.46
2022-08-09T16:27:17.170Z,101268.83
2022-08-09T16:32:34.406Z,101268.73
2022-08-09T16:37:55.156Z,101266.90
2022-08-09T16:42:59.399Z,101264.58
2022-08-09T16:48:38.011Z,101264.98
2022-08-09T16:53:26.784Z,101265.17
2022-08-09T16:58:35.819Z,101257.81
2022-08-09T17:03:38.490Z,101263.61
2022-08-09T17:09:03.084Z,101263.58
2022-08-09T17:14:04.594Z,101272.01
2022-08-09T17:19:06.202Z,101269.90
2022-08-09T17:24:21.142Z,101272.41
2022-08-09T17:29:38.063Z,101279.98
2022-08-09T17:35:07.843Z,101277.92
2022-08-09T17:40:06.139Z,101287.33
2022-08-09T17:45:26.873Z,101292.80
2022-08-09T17:50:36.044Z,101291.55
2022-08-09T17:55:49.633Z,101296.41
2022-08-09T18:00:51.726Z,101296.64
2022-08-09T18:05:56.412Z,101301.66
2022-08-09T18:11:01.736Z,101304.39
2022-08-09T18:16:08.991Z,101309.63
2022-08-09T18:21:22.997Z,101313.00
2022-08-09T18:26:25.172Z,101316.98
2022-08-09T18:31:51.014Z,101320.63
2022-08-09T18:36:49.500Z,101325.37
2022-08-09T18:41:52.857Z,101329.88
2022-08-09T18:47:05.149Z,101330.33
2022-08-09T18:52:12.435Z,101330.42
2022-08-09T18:57:14.848Z,101330.88
2022-08-09T19:02:17.622Z,101326.52
2022-08-09T19:07:18.824Z,101330.93
2022-08-09T19:12:22.599Z,101328.55
2022-08-09T19:17:24.162Z,101333.73
2022-08-09T19:22:32.950Z,101335.70
2022-08-09T19:27:34.971Z,101338.56
2022-08-09T19:32:38.188Z,101333.31
2022-08-09T19:37:54.526Z,101343.91
2022-08-09T19:43:03.230Z,101347.41
2022-08-09T19:48:06.692Z,101350.37
2022-08-09T19:53:11.981Z,101352.50
2022-08-09T19:58:16.459Z,101352.42
2022-08-09T20:04:07.524Z,101351.70
2022-08-09T20:08:41.016Z,101347.89
2022-08-09T20:13:53.656Z,101352.60
2022-08-09T20:19:41.813Z,101354.58
2022-08-09T20:24:29.195Z,101347.31
2022-08-09T20:29:37.767Z,101350.45
2022-08-09T20:34:39.617Z,101353.73
2022-08-09T20:40:15.256Z,101349.30
2022-08-09T20:45:58.643Z,101346.58
2022-08-09T20:50:47.731Z,101345.83
2022-08-09T20:55:47.407Z,101341.98
2022-08-09T21:01:33.132Z,101343.52
2022-08-09T21:06:29.390Z,101343.97
2022-08-09T21:16:54.198Z,101343.93
2022-08-09T21:21:57.591Z,101349.83
2022-08-09T21:27:00.226Z,101353.24
2022-08-09T21:32:17.277Z,101355.34
2022-08-09T21:37:22.942Z,101353.10
2022-08-09T21:42:28.400Z,101356.27
2022-08-09T21:47:30.161Z,101361.02
2022-08-09T21:52:32.908Z,101366.20
2022-08-09T21:57:39.170Z,101366.10
2022-08-09T22:02:59.875Z,101357.80
2022-08-09T22:08:01.590Z,101358.48
2022-08-09T22:13:07.617Z,101356.48
2022-08-09T22:18:12.748Z,101359.95
2022-08-09T22:23:14.560Z,101357.55
2022-08-09T22:28:29.438Z,101353.08
2022-08-09T22:33:37.633Z,101356.67
2022-08-09T22:38:50.097Z,101356.10
2022-08-09T22:44:01.151Z,101358.23
2022-08-09T22:49:09.992Z,101362.05
2022-08-09T22:54:11.826Z,101367.93
2022-08-09T22:59:55.620Z,101365.66
2022-08-09T23:04:33.957Z,101362.39
2022-08-09T23:09:39.549Z,101368.08
2022-08-09T23:14:42.223Z,101365.02
2022-08-09T23:20:00.909Z,101359.20
2022-08-09T23:25:05.393Z,101357.91
2022-08-09T23:30:07.342Z,101360.61
2022-08-09T23:35:08.727Z,101357.40
2022-08-09T23:40:10.361Z,101357.89
2022-08-09T23:45:11.516Z,101352.15
2022-08-09T23:50:32.434Z,101353.08
2022-08-09T23:55:37.933Z,101355.98
